Time;durP1;ratioP1;P1;durP2;ratioP2;P2;SDS_P1;SDS_P2;PMS_P1;PMS_P2;Temp;Humidity;BMP_temperature;BMP_pressure;BME280_temperature;BME280_humidity;BME280_pressure;Samples;Min_cycle;Max_cycle;Signal;HPM_P1;HPM_P2
2022/01/09 00:00:01;;;;;;;2.42;0.85;;;;;;;;;;4987729;28;20096;-93
2022/01/09 00:02:27;;;;;;;0.10;0.10;;;;;;;;;;5003882;28;20049;-95
2022/01/09 00:04:53;;;;;;;9.10;2.37;;;;;;;;;;4988179;28;20046;-93
2022/01/09 00:07:19;;;;;;;2.30;1.47;;;;;;;;;;4985938;28;20018;-94
2022/01/09 00:09:45;;;;;;;0.10;0.10;;;;;;;;;;4989378;28;20055;-93
2022/01/09 00:12:12;;;;;;;0.40;0.40;;;;;;;;;;4983065;28;20027;-94
2022/01/09 00:14:38;;;;;;;;;;;;;;;;;;4987505;28;20080;-93
2022/01/09 00:17:04;;;;;;;0.70;0.52;;;;;;;;;;4990483;28;19910;-94
2022/01/09 00:19:30;;;;;;;0.60;0.60;;;;;;;;;;4972131;28;20034;-93
2022/01/09 00:21:56;;;;;;;0.05;0.05;;;;;;;;;;4986003;28;20037;-93
2022/01/09 00:24:23;;;;;;;0.00;0.00;;;;;;;;;;4989462;28;20084;-93
2022/01/09 00:26:49;;;;;;;0.17;0.17;;;;;;;;;;4988367;28;20032;-93
2022/01/09 00:29:15;;;;;;;1.80;1.60;;;;;;;;;;4986416;28;20251;-93
2022/01/09 00:31:41;;;;;;;0.43;0.43;;;;;;;;;;5004061;28;20495;-92
2022/01/09 00:34:07;;;;;;;0.10;0.10;;;;;;;;;;4975148;28;20054;-92
2022/01/09 00:36:33;;;;;;;0.80;0.80;;;;;;;;;;4985276;28;20026;-93
2022/01/09 00:38:59;;;;;;;1.55;1.45;;;;;;;;;;4986611;28;20120;-93
2022/01/09 00:41:25;;;;;;;0.82;0.82;;;;;;;;;;4988459;28;20055;-92
2022/01/09 00:43:51;;;;;;;10.00;0.83;;;;;;;;;;4993074;28;20144;-93
2022/01/09 00:46:18;;;;;;;0.10;0.10;;;;;;;;;;4985596;28;20794;-92
2022/01/09 00:48:44;;;;;;;0.10;0.10;;;;;;;;;;4991651;28;20494;-93
2022/01/09 00:51:10;;;;;;;0.10;0.10;;;;;;;;;;4990535;28;20030;-93
2022/01/09 00:53:36;;;;;;;0.30;0.30;;;;;;;;;;4989077;28;20085;-92
2022/01/09 00:56:02;;;;;;;0.75;0.68;;;;;;;;;;4992464;28;20026;-92
2022/01/09 00:58:28;;;;;;;0.13;0.13;;;;;;;;;;4982560;28;20101;-92
2022/01/09 01:00:54;;;;;;;0.20;0.20;;;;;;;;;;4992297;28;20503;-93
2022/01/09 01:03:20;;;;;;;0.10;0.10;;;;;;;;;;4990864;28;20460;-93
2022/01/09 01:05:46;;;;;;;0.10;0.10;;;;;;;;;;4992845;28;20033;-93
2022/01/09 01:08:12;;;;;;;2.10;1.30;;;;;;;;;;4989045;28;20068;-93
2022/01/09 01:10:39;;;;;;;0.10;0.10;;;;;;;;;;4972134;28;20042;-92
2022/01/09 01:13:05;;;;;;;0.22;0.22;;;;;;;;;;4983650;28;20030;-92
2022/01/09 01:15:31;;;;;;;0.10;0.10;;;;;;;;;;4990672;28;20058;-93
2022/01/09 01:17:57;;;;;;;0.73;0.70;;;;;;;;;;4991787;28;20077;-92
2022/01/09 01:20:23;;;;;;;13.13;0.43;;;;;;;;;;4991404;28;20053;-94
2022/01/09 01:22:53;;;;;;;1.40;1.10;;;;;;;;;;4991500;28;20042;-93
2022/01/09 01:25:19;;;;;;;23.60;1.38;;;;;;;;;;4980319;28;20030;-94
2022/01/09 01:27:45;;;;;;;6.72;0.80;;;;;;;;;;4991460;28;20022;-92
2022/01/09 01:30:12;;;;;;;0.30;0.30;;;;;;;;;;4991361;28;20034;-94
2022/01/09 01:32:39;;;;;;;0.30;0.30;;;;;;;;;;4991652;28;20094;-93
2022/01/09 01:35:05;;;;;;;3.03;0.65;;;;;;;;;;5007337;28;20035;-92
2022/01/09 01:37:31;;;;;;;0.55;0.55;;;;;;;;;;4986587;28;20070;-93
2022/01/09 01:39:57;;;;;;;0.10;0.10;;;;;;;;;;4983429;28;20042;-93
2022/01/09 01:42:23;;;;;;;4.90;1.40;;;;;;;;;;4988667;28;20038;-94
2022/01/09 01:44:50;;;;;;;6.83;1.97;;;;;;;;;;4989231;28;20074;-93
2022/01/09 01:47:17;;;;;;;0.00;0.00;;;;;;;;;;4987528;28;20820;-93
2022/01/09 01:49:44;;;;;;;8.52;0.88;;;;;;;;;;4991007;28;20161;-92
2022/01/09 01:52:10;;;;;;;0.30;0.30;;;;;;;;;;4985608;28;20035;-93
2022/01/09 01:54:37;;;;;;;0.10;0.10;;;;;;;;;;4983766;28;20034;-92
2022/01/09 01:57:03;;;;;;;7.68;0.30;;;;;;;;;;4988047;28;20088;-93
2022/01/09 01:59:29;;;;;;;0.15;0.15;;;;;;;;;;4983469;28;20035;-93
2022/01/09 02:01:55;;;;;;;0.22;0.22;;;;;;;;;;4990302;28;20554;-92
2022/01/09 02:04:22;;;;;;;0.28;0.28;;;;;;;;;;4991167;28;20050;-93
2022/01/09 02:06:48;;;;;;;0.45;0.45;;;;;;;;;;4990904;28;20116;-92
2022/01/09 02:09:14;;;;;;;0.70;0.70;;;;;;;;;;4978278;28;20054;-94
2022/01/09 02:11:40;;;;;;;0.20;0.20;;;;;;;;;;4990963;28;20030;-92
2022/01/09 02:14:06;;;;;;;0.40;0.40;;;;;;;;;;5004762;28;20037;-92
2022/01/09 02:16:32;;;;;;;0.40;0.40;;;;;;;;;;4990901;28;20057;-92
2022/01/09 02:19:02;;;;;;;0.10;0.10;;;;;;;;;;4991123;28;20040;-93
2022/01/09 02:21:28;;;;;;;3.88;2.08;;;;;;;;;;4983604;28;20097;-94
2022/01/09 02:23:54;;;;;;;0.10;0.10;;;;;;;;;;4976133;28;20058;-92
2022/01/09 02:26:23;;;;;;;0.10;0.10;;;;;;;;;;4991086;28;20054;-93
2022/01/09 02:28:49;;;;;;;0.10;0.10;;;;;;;;;;4971965;28;20057;-92
2022/01/09 02:31:16;;;;;;;1.20;1.20;;;;;;;;;;4982866;28;20078;-92
2022/01/09 02:33:42;;;;;;;1.65;0.40;;;;;;;;;;4972857;28;20286;-93
2022/01/09 02:36:09;;;;;;;0.10;0.10;;;;;;;;;;4982024;28;20037;-93
2022/01/09 02:38:35;;;;;;;;;;;;;;;;;;4990759;28;20026;-93
2022/01/09 02:41:01;;;;;;;0.10;0.10;;;;;;;;;;4990498;28;19916;-92
2022/01/09 02:43:27;;;;;;;0.10;0.10;;;;;;;;;;4990971;28;20078;-94
2022/01/09 02:46:17;;;;;;;1.03;0.27;;;;;;;;;;4989089;28;20092;-92
2022/01/09 02:48:43;;;;;;;0.20;0.20;;;;;;;;;;4985762;28;20034;-92
2022/01/09 02:51:13;;;;;;;0.52;0.52;;;;;;;;;;4981631;28;20027;-92
2022/01/09 02:53:40;;;;;;;0.00;0.00;;;;;;;;;;4972155;28;20039;-93
2022/01/09 02:56:06;;;;;;;;;;;;;;;;;;4985378;28;20034;-92
2022/01/09 02:58:33;;;;;;;0.10;0.10;;;;;;;;;;4985849;28;20339;-93
2022/01/09 03:00:59;;;;;;;0.17;0.17;;;;;;;;;;4987889;28;20069;-93
2022/01/09 03:03:25;;;;;;;6.80;0.85;;;;;;;;;;4987142;28;20873;-91
2022/01/09 03:05:51;;;;;;;1.00;0.90;;;;;;;;;;4986491;28;20034;-92
2022/01/09 03:08:17;;;;;;;6.30;3.73;;;;;;;;;;4987120;28;20156;-92
2022/01/09 03:10:43;;;;;;;1.50;0.90;;;;;;;;;;4981667;28;20113;-90
2022/01/09 03:13:10;;;;;;;2.23;1.50;;;;;;;;;;4984282;28;20057;-93
2022/01/09 03:15:36;;;;;;;2.33;1.63;;;;;;;;;;4987145;28;20026;-92
2022/01/09 03:18:02;;;;;;;0.15;0.15;;;;;;;;;;4985647;28;20034;-93
2022/01/09 03:20:29;;;;;;;0.98;0.75;;;;;;;;;;4988121;28;20095;-93
2022/01/09 03:22:55;;;;;;;0.10;0.10;;;;;;;;;;4987294;28;20076;-83
2022/01/09 03:25:22;;;;;;;1.35;1.15;;;;;;;;;;4983160;28;20026;-93
2022/01/09 03:27:49;;;;;;;0.20;0.20;;;;;;;;;;4985805;28;20602;-91
2022/01/09 03:30:15;;;;;;;;;;;;;;;;;;4985554;28;20022;-93
2022/01/09 03:32:42;;;;;;;0.43;0.43;;;;;;;;;;4987418;28;19998;-93
2022/01/09 03:35:09;;;;;;;0.65;0.32;;;;;;;;;;4981016;28;20035;-93
2022/01/09 03:37:35;;;;;;;0.10;0.10;;;;;;;;;;4979407;28;20035;-93
2022/01/09 03:40:01;;;;;;;0.10;0.10;;;;;;;;;;4976608;28;20059;-93
2022/01/09 03:42:27;;;;;;;3.92;1.13;;;;;;;;;;4976167;28;20038;-93
2022/01/09 03:44:53;;;;;;;0.10;0.10;;;;;;;;;;4977055;28;20154;-94
2022/01/09 03:47:19;;;;;;;0.22;0.22;;;;;;;;;;4976925;28;20133;-94
2022/01/09 03:49:45;;;;;;;4.03;2.45;;;;;;;;;;4978447;28;20034;-94
2022/01/09 03:52:13;;;;;;;0.10;0.10;;;;;;;;;;4979522;28;20034;-93
2022/01/09 03:54:39;;;;;;;9.95;0.57;;;;;;;;;;4979703;28;20503;-93
2022/01/09 03:57:06;;;;;;;0.20;0.20;;;;;;;;;;4978837;28;20031;-94
2022/01/09 03:59:32;;;;;;;0.57;0.57;;;;;;;;;;4980051;28;20049;-94
2022/01/09 04:01:58;;;;;;;0.28;0.28;;;;;;;;;;4978718;28;20132;-94
2022/01/09 04:04:24;;;;;;;0.40;0.40;;;;;;;;;;4982726;28;20045;-93
2022/01/09 04:06:50;;;;;;;1.27;1.17;;;;;;;;;;4979557;28;20021;-95
2022/01/09 04:09:27;;;;;;;0.10;0.10;;;;;;;;;;4979256;28;20042;-93
2022/01/09 04:12:01;;;;;;;1.30;0.70;;;;;;;;;;4981671;28;20070;-93
2022/01/09 04:14:27;;;;;;;3.95;0.93;;;;;;;;;;4980695;28;20121;-94
2022/01/09 04:16:53;;;;;;;0.10;0.10;;;;;;;;;;4982742;28;20042;-95
2022/01/09 04:19:19;;;;;;;0.10;0.10;;;;;;;;;;4987893;28;20034;-94
2022/01/09 04:21:45;;;;;;;0.57;0.57;;;;;;;;;;4981228;28;20880;-93
2022/01/09 04:24:11;;;;;;;0.40;0.40;;;;;;;;;;4994129;28;20044;-93
2022/01/09 04:26:38;;;;;;;0.10;0.10;;;;;;;;;;4992292;28;20303;-93
2022/01/09 04:29:05;;;;;;;0.20;0.20;;;;;;;;;;4992890;28;20018;-93
2022/01/09 04:31:31;;;;;;;0.28;0.22;;;;;;;;;;4998345;28;20077;-94
2022/01/09 04:33:57;;;;;;;0.38;0.38;;;;;;;;;;4991378;28;20026;-93
2022/01/09 04:36:23;;;;;;;0.10;0.10;;;;;;;;;;4993423;28;20038;-94
2022/01/09 04:38:50;;;;;;;0.10;0.10;;;;;;;;;;4992537;28;20121;-95
2022/01/09 04:41:16;;;;;;;;;;;;;;;;;;4993413;28;20277;-94
2022/01/09 04:43:44;;;;;;;0.10;0.10;;;;;;;;;;4993578;28;19922;-95
2022/01/09 04:46:12;;;;;;;0.30;0.30;;;;;;;;;;4993824;28;20499;-93
2022/01/09 04:48:38;;;;;;;0.47;0.43;;;;;;;;;;4987252;28;20050;-94
2022/01/09 04:51:07;;;;;;;0.10;0.10;;;;;;;;;;4993496;28;20085;-94
2022/01/09 04:53:33;;;;;;;0.10;0.10;;;;;;;;;;4990068;28;20038;-94
2022/01/09 04:55:59;;;;;;;0.00;0.00;;;;;;;;;;4993453;28;20034;-96
2022/01/09 04:58:25;;;;;;;15.90;0.88;;;;;;;;;;4992941;28;20030;-92
2022/01/09 05:00:51;;;;;;;0.10;0.10;;;;;;;;;;4991596;28;20037;-95
2022/01/09 05:03:19;;;;;;;0.00;0.00;;;;;;;;;;4992727;28;20125;-94
2022/01/09 05:05:45;;;;;;;1.45;0.73;;;;;;;;;;4989014;28;20041;-94
2022/01/09 05:08:11;;;;;;;0.20;0.20;;;;;;;;;;4991122;28;20030;-94
2022/01/09 05:10:37;;;;;;;0.57;0.57;;;;;;;;;;4991793;28;20034;-94
2022/01/09 05:13:03;;;;;;;0.10;0.10;;;;;;;;;;4988554;28;20046;-93
2022/01/09 05:15:29;;;;;;;0.30;0.30;;;;;;;;;;4985945;28;20034;-94
2022/01/09 05:17:59;;;;;;;0.00;0.00;;;;;;;;;;4984848;28;20034;-93
2022/01/09 05:20:25;;;;;;;0.15;0.15;;;;;;;;;;4983834;28;20036;-94
2022/01/09 05:22:52;;;;;;;2.80;1.55;;;;;;;;;;4992632;28;20101;-93
2022/01/09 05:25:18;;;;;;;0.10;0.10;;;;;;;;;;4973296;28;20058;-94
2022/01/09 05:27:44;;;;;;;0.63;0.63;;;;;;;;;;4984463;28;20033;-94
2022/01/09 05:30:10;;;;;;;0.10;0.10;;;;;;;;;;4987138;28;20097;-93
2022/01/09 05:32:36;;;;;;;10.00;1.90;;;;;;;;;;4980884;28;20288;-93
2022/01/09 05:35:03;;;;;;;0.10;0.10;;;;;;;;;;4989591;28;20038;-93
2022/01/09 05:37:29;;;;;;;0.10;0.10;;;;;;;;;;4991293;28;20046;-93
2022/01/09 05:39:55;;;;;;;0.10;0.10;;;;;;;;;;4991042;28;20077;-93
2022/01/09 05:42:21;;;;;;;0.10;0.10;;;;;;;;;;4990701;28;20856;-94
2022/01/09 05:44:47;;;;;;;0.10;0.10;;;;;;;;;;4990626;28;20046;-93
2022/01/09 05:47:13;;;;;;;0.10;0.10;;;;;;;;;;4991033;28;20068;-93
2022/01/09 05:49:39;;;;;;;0.20;0.20;;;;;;;;;;5006851;28;20037;-93
2022/01/09 05:52:06;;;;;;;0.10;0.10;;;;;;;;;;4991098;28;20026;-93
2022/01/09 05:54:32;;;;;;;0.17;0.17;;;;;;;;;;4991135;28;20022;-93
2022/01/09 05:56:58;;;;;;;0.10;0.10;;;;;;;;;;4989177;28;20165;-93
2022/01/09 05:59:24;;;;;;;0.10;0.10;;;;;;;;;;4990359;28;20029;-94
2022/01/09 06:01:50;;;;;;;0.35;0.35;;;;;;;;;;4991341;28;20026;-93
2022/01/09 06:04:16;;;;;;;7.03;0.65;;;;;;;;;;5004388;28;20431;-93
2022/01/09 06:06:42;;;;;;;0.10;0.10;;;;;;;;;;4986112;28;20030;-93
2022/01/09 06:09:10;;;;;;;7.13;1.17;;;;;;;;;;4986474;28;20057;-93
2022/01/09 06:11:36;;;;;;;0.10;0.10;;;;;;;;;;4987247;28;20289;-93
2022/01/09 06:14:02;;;;;;;3.05;2.85;;;;;;;;;;5005287;28;20034;-93
2022/01/09 06:16:28;;;;;;;0.10;0.10;;;;;;;;;;5000109;28;20073;-94
2022/01/09 06:18:54;;;;;;;0.10;0.10;;;;;;;;;;4988485;28;20077;-94
2022/01/09 06:21:20;;;;;;;0.10;0.10;;;;;;;;;;4989786;28;20054;-93
2022/01/09 06:23:46;;;;;;;6.43;1.23;;;;;;;;;;4991302;28;20069;-92
2022/01/09 06:26:12;;;;;;;0.30;0.30;;;;;;;;;;4986723;28;20145;-93
2022/01/09 06:28:39;;;;;;;0.10;0.10;;;;;;;;;;4990200;28;20133;-94
2022/01/09 06:31:05;;;;;;;0.45;0.45;;;;;;;;;;4988300;28;20030;-93
2022/01/09 06:33:31;;;;;;;1.83;1.20;;;;;;;;;;4983468;28;20049;-94
2022/01/09 06:35:57;;;;;;;0.10;0.10;;;;;;;;;;4983828;28;20065;-94
2022/01/09 06:38:23;;;;;;;0.20;0.20;;;;;;;;;;4991402;28;20829;-94
2022/01/09 06:40:49;;;;;;;3.03;1.20;;;;;;;;;;5007301;28;20030;-94
2022/01/09 06:43:15;;;;;;;0.10;0.10;;;;;;;;;;4989809;28;20100;-94
2022/01/09 06:45:41;;;;;;;1.00;0.40;;;;;;;;;;4991703;28;20427;-94
2022/01/09 06:48:07;;;;;;;0.10;0.10;;;;;;;;;;4990137;28;20073;-94
2022/01/09 06:50:33;;;;;;;1.30;1.13;;;;;;;;;;4987487;28;20027;-94
2022/01/09 06:52:59;;;;;;;0.00;0.00;;;;;;;;;;4990282;28;20058;-93
2022/01/09 06:55:25;;;;;;;0.15;0.15;;;;;;;;;;4989608;28;20030;-93
2022/01/09 06:57:53;;;;;;;1.30;1.20;;;;;;;;;;4988273;28;20046;-93
2022/01/09 07:00:19;;;;;;;0.00;0.00;;;;;;;;;;4988409;28;20057;-93
2022/01/09 07:02:46;;;;;;;0.10;0.10;;;;;;;;;;4983147;28;20023;-94
2022/01/09 07:05:12;;;;;;;0.00;0.00;;;;;;;;;;4984359;28;20331;-94
2022/01/09 07:07:38;;;;;;;0.10;0.10;;;;;;;;;;4991204;28;20026;-94
2022/01/09 07:10:05;;;;;;;0.10;0.10;;;;;;;;;;4988356;28;20089;-94
2022/01/09 07:12:31;;;;;;;0.47;0.47;;;;;;;;;;4989879;28;20034;-93
2022/01/09 07:14:57;;;;;;;0.20;0.20;;;;;;;;;;4988643;28;20117;-93
2022/01/09 07:17:23;;;;;;;0.45;0.43;;;;;;;;;;4987221;28;20141;-93
2022/01/09 07:19:49;;;;;;;0.10;0.10;;;;;;;;;;4986431;28;20082;-93
2022/01/09 07:22:15;;;;;;;0.10;0.10;;;;;;;;;;4989865;28;20030;-93
2022/01/09 07:24:41;;;;;;;0.10;0.10;;;;;;;;;;4989920;28;20062;-90
2022/01/09 07:27:07;;;;;;;0.00;0.00;;;;;;;;;;4985217;28;20654;-86
2022/01/09 07:29:34;;;;;;;0.93;0.93;;;;;;;;;;4985363;28;20128;-91
2022/01/09 07:32:00;;;;;;;0.17;0.17;;;;;;;;;;4981914;28;20407;-86
2022/01/09 07:34:26;;;;;;;0.30;0.30;;;;;;;;;;4981449;28;20026;-88
2022/01/09 07:36:52;;;;;;;0.98;0.98;;;;;;;;;;4983553;28;20101;-88
2022/01/09 07:39:18;;;;;;;0.32;0.20;;;;;;;;;;4981691;28;20030;-87
2022/01/09 07:41:45;;;;;;;0.23;0.23;;;;;;;;;;4980263;28;20034;-87
2022/01/09 07:44:11;;;;;;;0.82;0.25;;;;;;;;;;4979938;28;20097;-86
2022/01/09 07:46:38;;;;;;;0.60;0.60;;;;;;;;;;4981523;28;20027;-88
2022/01/09 07:49:04;;;;;;;0.10;0.10;;;;;;;;;;4981799;28;20057;-87
2022/01/09 07:51:30;;;;;;;1.10;0.30;;;;;;;;;;4981843;28;20056;-86
2022/01/09 07:53:56;;;;;;;1.98;1.58;;;;;;;;;;4983111;28;20046;-88
2022/01/09 07:56:22;;;;;;;0.00;0.00;;;;;;;;;;4980482;28;20037;-87
2022/01/09 07:58:48;;;;;;;0.20;0.20;;;;;;;;;;4982917;28;20066;-89
2022/01/09 08:01:14;;;;;;;0.10;0.10;;;;;;;;;;4983102;28;20038;-88
2022/01/09 08:03:40;;;;;;;0.52;0.45;;;;;;;;;;4981723;28;20038;-86
2022/01/09 08:06:06;;;;;;;2.30;1.30;;;;;;;;;;4983077;28;20042;-87
2022/01/09 08:08:32;;;;;;;0.50;0.43;;;;;;;;;;4983681;28;20498;-91
2022/01/09 08:10:58;;;;;;;0.10;0.10;;;;;;;;;;4986009;28;20034;-92
2022/01/09 08:13:24;;;;;;;0.32;0.32;;;;;;;;;;4985306;28;20082;-90
2022/01/09 08:15:50;;;;;;;0.10;0.10;;;;;;;;;;4983545;28;20525;-88
2022/01/09 08:18:16;;;;;;;0.05;0.05;;;;;;;;;;4981856;28;20134;-91
2022/01/09 08:20:42;;;;;;;0.10;0.10;;;;;;;;;;4978863;28;20168;-90
2022/01/09 08:23:08;;;;;;;0.60;0.60;;;;;;;;;;4978089;28;20042;-90
2022/01/09 08:25:34;;;;;;;0.10;0.10;;;;;;;;;;4981560;28;20042;-91
2022/01/09 08:28:00;;;;;;;0.10;0.10;;;;;;;;;;4988028;28;20442;-91
2022/01/09 08:30:26;;;;;;;1.85;0.65;;;;;;;;;;4984203;28;20105;-92
2022/01/09 08:32:52;;;;;;;0.38;0.38;;;;;;;;;;4973906;28;20172;-90
2022/01/09 08:35:19;;;;;;;0.75;0.75;;;;;;;;;;4982722;28;20026;-90
2022/01/09 08:37:45;;;;;;;0.52;0.52;;;;;;;;;;4985554;28;20120;-89
2022/01/09 08:40:12;;;;;;;0.37;0.37;;;;;;;;;;4985832;28;20041;-90
2022/01/09 08:42:39;;;;;;;0.00;0.00;;;;;;;;;;4972228;28;20046;-92
2022/01/09 08:45:05;;;;;;;24.13;0.70;;;;;;;;;;4980870;28;20080;-88
2022/01/09 08:47:35;;;;;;;0.90;0.90;;;;;;;;;;4980905;28;20506;-93
2022/01/09 08:50:01;;;;;;;0.10;0.10;;;;;;;;;;4986252;28;20049;-91
2022/01/09 08:52:27;;;;;;;0.43;0.43;;;;;;;;;;4983367;28;20033;-93
2022/01/09 08:54:53;;;;;;;0.10;0.10;;;;;;;;;;4984362;28;20039;-93
2022/01/09 08:57:19;;;;;;;0.60;0.60;;;;;;;;;;4987335;28;20136;-92
2022/01/09 08:59:45;;;;;;;0.30;0.30;;;;;;;;;;4989088;28;20027;-91
2022/01/09 09:02:11;;;;;;;0.08;0.08;;;;;;;;;;4982343;28;20034;-91
2022/01/09 09:04:39;;;;;;;0.63;0.30;;;;;;;;;;4988821;28;20070;-90
2022/01/09 09:07:05;;;;;;;0.10;0.10;;;;;;;;;;4987398;28;20027;-92
2022/01/09 09:09:31;;;;;;;0.10;0.10;;;;;;;;;;4986475;28;20049;-93
2022/01/09 09:11:57;;;;;;;0.10;0.10;;;;;;;;;;4983888;28;20022;-94
2022/01/09 09:14:23;;;;;;;0.30;0.30;;;;;;;;;;4983557;28;20518;-92
2022/01/09 09:16:49;;;;;;;0.10;0.10;;;;;;;;;;4984782;28;20782;-90
2022/01/09 09:19:15;;;;;;;0.10;0.10;;;;;;;;;;4982627;28;20129;-89
2022/01/09 09:21:41;;;;;;;0.10;0.10;;;;;;;;;;4989340;28;20030;-91
2022/01/09 09:24:07;;;;;;;0.10;0.10;;;;;;;;;;4981177;28;20159;-89
2022/01/09 09:26:34;;;;;;;0.10;0.10;;;;;;;;;;4980861;28;20579;-88
2022/01/09 09:29:00;;;;;;;;;;;;;;;;;;4986083;28;20034;-92
2022/01/09 09:31:26;;;;;;;0.10;0.10;;;;;;;;;;4985218;28;19921;-91
2022/01/09 09:33:52;;;;;;;0.10;0.10;;;;;;;;;;4982349;28;20081;-91
2022/01/09 09:36:21;;;;;;;0.10;0.10;;;;;;;;;;4983941;28;20454;-91
2022/01/09 09:38:48;;;;;;;0.75;0.47;;;;;;;;;;4984042;28;20081;-90
2022/01/09 09:41:14;;;;;;;0.75;0.73;;;;;;;;;;4985432;28;20030;-90
2022/01/09 09:43:40;;;;;;;1.70;1.63;;;;;;;;;;4983691;28;20058;-89
2022/01/09 09:46:06;;;;;;;3.15;0.73;;;;;;;;;;4983588;28;20488;-91
2022/01/09 09:48:32;;;;;;;0.40;0.40;;;;;;;;;;4983656;28;20153;-91
2022/01/09 09:50:58;;;;;;;3.83;3.53;;;;;;;;;;4985213;28;20072;-93
2022/01/09 09:53:24;;;;;;;1.20;1.20;;;;;;;;;;4987890;28;20110;-94
2022/01/09 09:55:53;;;;;;;6.28;1.27;;;;;;;;;;5004076;28;20038;-93
2022/01/09 09:58:19;;;;;;;0.25;0.25;;;;;;;;;;4990769;28;20018;-94
2022/01/09 10:00:55;;;;;;;0.10;0.10;;;;;;;;;;4988286;28;20034;-92
2022/01/09 10:03:31;;;;;;;0.20;0.20;;;;;;;;;;4981405;28;20129;-94
2022/01/09 10:05:58;;;;;;;0.20;0.20;;;;;;;;;;4982544;28;20035;-91
2022/01/09 10:08:35;;;;;;;0.20;0.20;;;;;;;;;;4986631;28;20403;-92
2022/01/09 10:11:11;;;;;;;0.40;0.40;;;;;;;;;;4978846;28;20027;-93
2022/01/09 10:13:37;;;;;;;0.10;0.10;;;;;;;;;;4983825;28;20077;-89
2022/01/09 10:16:03;;;;;;;11.93;1.65;;;;;;;;;;4985395;28;20534;-91
2022/01/09 10:18:45;;;;;;;0.10;0.10;;;;;;;;;;4989445;28;20022;-91
2022/01/09 10:21:20;;;;;;;0.30;0.30;;;;;;;;;;4988733;28;20030;-91
2022/01/09 10:24:06;;;;;;;4.55;1.02;;;;;;;;;;4980084;28;20048;-90
2022/01/09 10:26:35;;;;;;;2.53;1.38;;;;;;;;;;4974657;28;20030;-90
2022/01/09 10:29:03;;;;;;;0.30;0.30;;;;;;;;;;4987056;28;20057;-89
2022/01/09 10:31:29;;;;;;;;;;;;;;;;;;4981951;28;20050;-91
2022/01/09 10:34:08;;;;;;;0.60;0.60;;;;;;;;;;4984046;28;20008;-91
2022/01/09 10:36:40;;;;;;;1.25;0.50;;;;;;;;;;4989263;28;20042;-90
2022/01/09 10:39:16;;;;;;;0.85;0.85;;;;;;;;;;4981561;28;20039;-88
2022/01/09 10:41:58;;;;;;;1.25;1.23;;;;;;;;;;4987756;28;20101;-91
2022/01/09 10:44:35;;;;;;;0.15;0.15;;;;;;;;;;4985219;28;20050;-90
2022/01/09 10:47:01;;;;;;;0.10;0.10;;;;;;;;;;4988935;28;20030;-87
2022/01/09 10:49:42;;;;;;;0.10;0.10;;;;;;;;;;4982452;28;20038;-87
2022/01/09 10:52:18;;;;;;;0.15;0.15;;;;;;;;;;4981098;28;20069;-87
2022/01/09 10:54:46;;;;;;;;;;;;;;;;;;4984531;28;20030;-91
2022/01/09 10:57:17;;;;;;;0.93;0.93;;;;;;;;;;4985608;28;19909;-89
2022/01/09 10:59:43;;;;;;;0.73;0.73;;;;;;;;;;4983873;28;20034;-90
2022/01/09 11:02:12;;;;;;;0.17;0.17;;;;;;;;;;4984733;28;20022;-88
2022/01/09 11:04:40;;;;;;;4.00;1.73;;;;;;;;;;4980257;28;20042;-88
2022/01/09 11:07:07;;;;;;;0.85;0.77;;;;;;;;;;4985406;28;20877;-89
2022/01/09 11:09:33;;;;;;;0.20;0.20;;;;;;;;;;4979034;28;20037;-91
2022/01/09 11:12:02;;;;;;;1.98;1.17;;;;;;;;;;4988216;28;20154;-91
2022/01/09 11:14:28;;;;;;;3.40;1.70;;;;;;;;;;4986407;28;20889;-90
2022/01/09 11:16:56;;;;;;;8.73;1.08;;;;;;;;;;4986450;28;20030;-90
2022/01/09 11:19:23;;;;;;;0.17;0.17;;;;;;;;;;4985678;28;20033;-90
2022/01/09 11:21:49;;;;;;;0.20;0.20;;;;;;;;;;4984754;28;20758;-90
2022/01/09 11:24:31;;;;;;;1.23;0.88;;;;;;;;;;4984297;28;20076;-87
2022/01/09 11:27:06;;;;;;;0.22;0.22;;;;;;;;;;4986128;28;20089;-89
2022/01/09 11:29:40;;;;;;;24.63;0.70;;;;;;;;;;4987780;28;20030;-90
2022/01/09 11:32:06;;;;;;;0.60;0.60;;;;;;;;;;4986797;28;20495;-90
2022/01/09 11:34:39;;;;;;;3.30;1.10;;;;;;;;;;4987169;28;20084;-91
2022/01/09 11:37:25;;;;;;;0.70;0.70;;;;;;;;;;4983891;28;20112;-90
2022/01/09 11:39:51;;;;;;;0.75;0.75;;;;;;;;;;4982635;28;20053;-90
2022/01/09 11:42:18;;;;;;;1.23;0.98;;;;;;;;;;4987485;28;20514;-90
2022/01/09 11:44:51;;;;;;;4.95;2.45;;;;;;;;;;4986579;28;20607;-89
2022/01/09 11:47:17;;;;;;;0.73;0.73;;;;;;;;;;4986773;28;20073;-90
2022/01/09 11:49:52;;;;;;;3.63;1.35;;;;;;;;;;4985745;28;20171;-90
2022/01/09 11:52:18;;;;;;;0.75;0.73;;;;;;;;;;4986425;28;20034;-92
2022/01/09 11:54:51;;;;;;;0.60;0.60;;;;;;;;;;4986296;28;20026;-91
2022/01/09 11:57:36;;;;;;;1.80;1.15;;;;;;;;;;4984440;28;20062;-89
2022/01/09 12:00:03;;;;;;;1.25;0.82;;;;;;;;;;4981115;28;20033;-89
2022/01/09 12:02:30;;;;;;;0.10;0.10;;;;;;;;;;4984942;28;20038;-89
2022/01/09 12:04:58;;;;;;;0.63;0.50;;;;;;;;;;4979295;28;20049;-89
2022/01/09 12:07:36;;;;;;;0.70;0.70;;;;;;;;;;4977020;28;20515;-89
2022/01/09 12:10:22;;;;;;;0.10;0.10;;;;;;;;;;4980489;28;20192;-90
2022/01/09 12:12:48;;;;;;;0.20;0.20;;;;;;;;;;4977169;28;20093;-89
2022/01/09 12:15:15;;;;;;;0.22;0.22;;;;;;;;;;4983089;28;20034;-90
2022/01/09 12:17:45;;;;;;;0.90;0.90;;;;;;;;;;4977387;28;20058;-91
2022/01/09 12:20:14;;;;;;;0.57;0.57;;;;;;;;;;4983163;28;20801;-92
2022/01/09 12:22:45;;;;;;;0.70;0.68;;;;;;;;;;4983110;28;20026;-92
2022/01/09 12:25:31;;;;;;;0.63;0.63;;;;;;;;;;4978639;28;20137;-91
2022/01/09 12:28:03;;;;;;;1.77;0.90;;;;;;;;;;4978785;28;20027;-93
2022/01/09 12:30:41;;;;;;;4.47;2.58;;;;;;;;;;4977742;28;20038;-88
2022/01/09 12:33:15;;;;;;;2.13;1.20;;;;;;;;;;4977749;28;20133;-93
2022/01/09 12:35:43;;;;;;;4.28;1.77;;;;;;;;;;4985528;28;20030;-93
2022/01/09 12:38:13;;;;;;;1.75;1.42;;;;;;;;;;4988410;28;20026;-94
2022/01/09 12:40:41;;;;;;;0.68;0.68;;;;;;;;;;4984640;28;20034;-92
2022/01/09 12:43:06;;;;;;;;;;;;;;;;;;4981080;28;20060;-94
2022/01/09 12:45:32;;;;;;;0.30;0.30;;;;;;;;;;4993559;28;20519;-94
2022/01/09 12:47:59;;;;;;;0.73;0.73;;;;;;;;;;4987721;28;20050;-96
2022/01/09 12:50:31;;;;;;;20.90;2.80;;;;;;;;;;4983603;28;20035;-95
2022/01/09 12:53:16;;;;;;;3.20;2.33;;;;;;;;;;5003003;28;20038;-94
2022/01/09 12:55:59;;;;;;;1.95;1.55;;;;;;;;;;4983691;28;20053;-92
2022/01/09 12:58:25;;;;;;;0.40;0.40;;;;;;;;;;4983237;28;20030;-91
2022/01/09 13:00:51;;;;;;;3.10;1.95;;;;;;;;;;4985270;28;20501;-92
2022/01/09 13:03:21;;;;;;;1.37;1.27;;;;;;;;;;4989457;28;20053;-93
2022/01/09 13:06:00;;;;;;;0.98;0.98;;;;;;;;;;4987857;28;20364;-95
2022/01/09 13:08:26;;;;;;;0.88;0.88;;;;;;;;;;4989094;28;20514;-94
2022/01/09 13:10:57;;;;;;;0.45;0.40;;;;;;;;;;4973349;28;20179;-94
2022/01/09 13:13:24;;;;;;;0.50;0.50;;;;;;;;;;4984962;28;20096;-93
2022/01/09 13:15:50;;;;;;;0.38;0.38;;;;;;;;;;4978488;28;20403;-93
2022/01/09 13:18:16;;;;;;;0.70;0.57;;;;;;;;;;4987155;28;20048;-95
2022/01/09 13:20:42;;;;;;;0.55;0.55;;;;;;;;;;4992213;28;20403;-94
2022/01/09 13:23:11;;;;;;;3.77;1.77;;;;;;;;;;5007466;28;20043;-93
2022/01/09 13:25:49;;;;;;;0.55;0.55;;;;;;;;;;4972873;28;20106;-94
2022/01/09 13:28:22;;;;;;;0.10;0.10;;;;;;;;;;4991523;28;20027;-93
2022/01/09 13:30:48;;;;;;;1.65;1.55;;;;;;;;;;4977788;28;20041;-92
2022/01/09 13:33:14;;;;;;;0.50;0.50;;;;;;;;;;4980875;28;20052;-94
2022/01/09 13:35:41;;;;;;;0.20;0.20;;;;;;;;;;4991135;28;20035;-93
2022/01/09 13:38:07;;;;;;;1.70;1.60;;;;;;;;;;4990477;28;20265;-93
2022/01/09 13:40:33;;;;;;;0.20;0.20;;;;;;;;;;4991169;28;20129;-94
2022/01/09 13:43:01;;;;;;;0.20;0.20;;;;;;;;;;4981271;28;20598;-93
2022/01/09 13:45:27;;;;;;;0.35;0.35;;;;;;;;;;4984702;28;20113;-93
2022/01/09 13:47:56;;;;;;;0.20;0.20;;;;;;;;;;4991722;28;20035;-94
2022/01/09 13:50:22;;;;;;;0.10;0.10;;;;;;;;;;4972859;28;20039;-93
2022/01/09 13:52:48;;;;;;;0.43;0.43;;;;;;;;;;4987764;28;20554;-94
2022/01/09 13:55:15;;;;;;;3.40;1.60;;;;;;;;;;4988265;28;20031;-93
2022/01/09 13:57:52;;;;;;;2.20;0.75;;;;;;;;;;4991994;28;20022;-92
2022/01/09 14:00:21;;;;;;;15.18;0.85;;;;;;;;;;4987643;28;20048;-94
2022/01/09 14:02:49;;;;;;;0.35;0.35;;;;;;;;;;4987116;28;20027;-93
2022/01/09 14:05:19;;;;;;;0.10;0.10;;;;;;;;;;4991550;28;20046;-94
2022/01/09 14:07:48;;;;;;;0.20;0.20;;;;;;;;;;4991475;28;20050;-91
2022/01/09 14:10:15;;;;;;;0.95;0.95;;;;;;;;;;4990174;28;20196;-93
2022/01/09 14:12:42;;;;;;;2.20;2.08;;;;;;;;;;4986910;28;20026;-92
2022/01/09 14:15:14;;;;;;;0.93;0.93;;;;;;;;;;5004258;28;20066;-94
2022/01/09 14:17:47;;;;;;;0.57;0.57;;;;;;;;;;4987278;28;20026;-93
2022/01/09 14:20:31;;;;;;;0.52;0.38;;;;;;;;;;4982356;28;20067;-93
2022/01/09 14:22:58;;;;;;;0.28;0.20;;;;;;;;;;4980059;28;20030;-93
2022/01/09 14:25:24;;;;;;;;;;;;;;;;;;4991753;28;20027;-94
2022/01/09 14:27:50;;;;;;;0.20;0.20;;;;;;;;;;4978711;28;19910;-93
2022/01/09 14:30:24;;;;;;;0.57;0.57;;;;;;;;;;4976568;28;20034;-93
2022/01/09 14:33:05;;;;;;;0.25;0.25;;;;;;;;;;4988541;28;20114;-93
2022/01/09 14:35:36;;;;;;;0.47;0.47;;;;;;;;;;4989548;28;20054;-93
2022/01/09 14:38:03;;;;;;;0.20;0.20;;;;;;;;;;5005542;28;20042;-93
2022/01/09 14:40:31;;;;;;;0.20;0.20;;;;;;;;;;4989755;28;20026;-94
2022/01/09 14:42:57;;;;;;;0.20;0.20;;;;;;;;;;4987109;28;20034;-93
2022/01/09 14:45:23;;;;;;;0.28;0.28;;;;;;;;;;4990906;28;20030;-93
2022/01/09 14:47:49;;;;;;;0.30;0.30;;;;;;;;;;4990869;28;20026;-93